Terminal Aerodrome Forecast
Issued by NWS

Home | Current Version | Previous Version | Text Only | Print | Product List | Glossary On
Versions: 1 2 3 4 5 6 7 8 9 10 11 12 13 14 15 16 17 18 19 20 21
000
FTUS43 KILX 132342
TAFDEC
TAF
KDEC 132342Z 1400/1424 29017G32KT P6SM OVC025
     FM140200 31020G35KT P6SM OVC025
     FM140400 33015G25KT P6SM BKN030
     FM140700 33008KT P6SM BKN060=

USA.gov is the U.S. government's official web portal to all federal, state and local government web resources and services.